createdAt,value
2022-11-03T00:01:48.641Z,14.63
2022-11-03T00:06:53.544Z,15.23
2022-11-03T00:11:55.891Z,14.60
2022-11-03T00:16:58.267Z,14.07
2022-11-03T00:22:00.701Z,13.97
2022-11-03T00:27:03.089Z,14.50
2022-11-03T00:32:05.985Z,14.80
2022-11-03T00:37:08.502Z,13.67
2022-11-03T00:42:10.938Z,13.23
2022-11-03T00:47:13.355Z,12.87
2022-11-03T00:52:16.154Z,12.60
2022-11-03T00:57:19.365Z,13.17
2022-11-03T01:02:22.216Z,12.93
2022-11-03T01:07:24.529Z,13.47
2022-11-03T01:12:27.998Z,14.13
2022-11-03T01:17:30.549Z,13.80
2022-11-03T01:22:32.946Z,14.13
2022-11-03T01:27:35.397Z,13.27
2022-11-03T01:32:37.721Z,14.43
2022-11-03T01:37:40.168Z,12.90
2022-11-03T01:42:42.628Z,12.70
2022-11-03T01:47:47.155Z,12.77
2022-11-03T01:52:53.929Z,12.47
2022-11-03T01:58:04.068Z,13.80
2022-11-03T02:03:06.803Z,12.70
2022-11-03T02:08:21.109Z,13.03
2022-11-03T02:13:25.768Z,13.37
2022-11-03T02:18:34.557Z,11.33
2022-11-03T02:23:47.649Z,16.87
2022-11-03T02:28:50.117Z,13.23
2022-11-03T02:34:08.341Z,11.70
2022-11-03T02:39:22.015Z,12.80
2022-11-03T02:44:26.204Z,12.77
2022-11-03T02:49:28.650Z,13.63
2022-11-03T02:54:38.788Z,13.57
2022-11-03T02:59:51.449Z,14.33
2022-11-03T03:04:57.713Z,13.73
2022-11-03T03:10:23.857Z,12.47
2022-11-03T03:16:01.449Z,12.00
2022-11-03T03:21:21.108Z,12.40
2022-11-03T03:26:42.746Z,11.73
2022-11-03T03:31:53.662Z,12.67
2022-11-03T03:36:59.024Z,12.43
2022-11-03T03:42:02.862Z,12.67
2022-11-03T03:47:08.616Z,12.97
2022-11-03T03:52:11.209Z,13.40
2022-11-03T03:57:20.394Z,10.33
2022-11-03T04:02:22.917Z,10.40
2022-11-03T04:07:44.024Z,9.83
2022-11-03T04:13:05.487Z,10.57
2022-11-03T04:18:26.872Z,9.77
2022-11-03T04:23:29.437Z,12.03
2022-11-03T04:28:32.109Z,10.90
2022-11-03T04:33:34.653Z,11.23
2022-11-03T04:38:38.138Z,10.00
2022-11-03T04:43:40.737Z,11.13
2022-11-03T04:48:44.209Z,10.93
2022-11-03T04:53:57.080Z,9.70
2022-11-03T04:58:59.603Z,8.40
2022-11-03T05:04:02.230Z,8.33
2022-11-03T05:09:31.555Z,8.73
2022-11-03T05:14:34.097Z,9.67
2022-11-03T05:19:39.947Z,9.47
2022-11-03T05:24:42.712Z,10.80
2022-11-03T05:29:45.765Z,9.50
2022-11-03T05:34:52.713Z,12.20
2022-11-03T05:40:25.649Z,10.57
2022-11-03T05:45:34.006Z,10.33
2022-11-03T05:50:36.707Z,11.70
2022-11-03T05:55:40.255Z,10.93
2022-11-03T06:00:48.073Z,11.57
2022-11-03T06:05:52.309Z,14.97
2022-11-03T06:10:58.287Z,14.63
2022-11-03T06:16:25.549Z,10.97
2022-11-03T06:21:28.057Z,9.73
2022-11-03T06:26:31.567Z,9.67
2022-11-03T06:31:34.534Z,8.73
2022-11-03T06:36:37.703Z,10.13
2022-11-03T06:41:40.313Z,9.30
2022-11-03T06:46:42.745Z,10.33
2022-11-03T06:51:45.300Z,9.93
2022-11-03T06:56:47.874Z,11.20
2022-11-03T07:01:56.037Z,10.13
2022-11-03T07:07:02.928Z,10.00
2022-11-03T07:12:15.163Z,10.70
2022-11-03T07:17:22.243Z,9.30
2022-11-03T07:22:26.301Z,8.93
2022-11-03T07:27:36.466Z,10.73
2022-11-03T07:32:39.822Z,9.87
2022-11-03T07:37:42.304Z,9.90
2022-11-03T07:42:44.997Z,10.37
2022-11-03T07:47:47.470Z,9.83
2022-11-03T07:52:50.046Z,11.07
2022-11-03T07:57:52.539Z,11.27
2022-11-03T08:03:00.401Z,9.87
2022-11-03T08:08:02.805Z,11.03
2022-11-03T08:13:05.418Z,9.17
2022-11-03T08:18:08.029Z,9.03
2022-11-03T08:23:25.359Z,9.90
2022-11-03T08:28:30.026Z,10.33
2022-11-03T08:33:33.792Z,11.17
2022-11-03T08:38:36.477Z,13.70
2022-11-03T08:43:38.928Z,15.03
2022-11-03T08:48:41.682Z,13.93
2022-11-03T08:53:44.178Z,14.73
2022-11-03T08:58:47.591Z,14.60
2022-11-03T09:03:50.105Z,15.57
2022-11-03T09:14:15.127Z,11.30
2022-11-03T09:19:17.684Z,11.00
2022-11-03T09:24:20.218Z,9.27
2022-11-03T09:29:22.843Z,9.30
2022-11-03T09:34:25.277Z,9.93
2022-11-03T09:39:27.719Z,8.63
2022-11-03T09:44:33.797Z,7.47
2022-11-03T09:49:36.776Z,8.00
2022-11-03T09:54:39.336Z,8.10
2022-11-03T09:59:45.367Z,7.27
2022-11-03T10:04:47.811Z,6.83
2022-11-03T10:09:52.220Z,6.90
2022-11-03T10:14:55.243Z,8.87
2022-11-03T10:19:58.760Z,7.23
2022-11-03T10:25:32.390Z,7.50
2022-11-03T10:31:15.727Z,7.80
2022-11-03T10:36:18.175Z,6.67
2022-11-03T10:41:26.093Z,6.13
2022-11-03T10:46:48.946Z,5.83
2022-11-03T10:51:53.187Z,5.03
2022-11-03T10:56:55.572Z,5.80
2022-11-03T11:01:59.092Z,4.77
2022-11-03T11:07:01.739Z,6.57
2022-11-03T11:12:25.446Z,7.43
2022-11-03T11:17:43.016Z,8.10
2022-11-03T11:22:46.084Z,6.90
2022-11-03T11:27:55.466Z,8.83
2022-11-03T11:33:15.096Z,7.97
2022-11-03T11:38:48.389Z,6.50
2022-11-03T11:43:50.798Z,6.73
2022-11-03T11:49:18.145Z,7.43
2022-11-03T11:54:21.407Z,6.13
2022-11-03T11:59:26.004Z,4.83
2022-11-03T12:04:31.790Z,4.83
2022-11-03T12:09:34.502Z,4.10
2022-11-03T12:14:38.556Z,5.40
2022-11-03T12:19:44.069Z,6.47
2022-11-03T12:24:50.966Z,5.27
2022-11-03T12:30:02.693Z,3.33
2022-11-03T12:35:08.300Z,3.67
2022-11-03T12:40:13.792Z,3.33
2022-11-03T12:45:16.392Z,3.47
2022-11-03T12:50:18.878Z,3.53
2022-11-03T12:55:21.614Z,3.37
2022-11-03T13:00:24.171Z,6.47
2022-11-03T13:05:26.675Z,4.97
2022-11-03T13:10:29.118Z,4.47
2022-11-03T13:15:31.545Z,4.43
2022-11-03T13:20:34.471Z,3.53
2022-11-03T13:25:37.072Z,5.60
2022-11-03T13:30:40.530Z,3.50
2022-11-03T13:35:43.002Z,5.13
2022-11-03T13:41:06.960Z,4.47
2022-11-03T13:46:07.900Z,4.00
2022-11-03T13:51:12.217Z,4.10
2022-11-03T13:56:20.760Z,5.10
2022-11-03T14:01:25.055Z,5.00
2022-11-03T14:06:27.852Z,5.57
2022-11-03T14:11:48.814Z,5.53
2022-11-03T14:16:51.258Z,7.03
2022-11-03T14:21:53.713Z,6.73
2022-11-03T14:26:56.209Z,5.30
2022-11-03T14:32:00.033Z,6.13
2022-11-03T14:37:02.915Z,5.83
2022-11-03T14:42:09.898Z,6.17
2022-11-03T14:47:18.025Z,17.97
2022-11-03T14:52:20.633Z,30.37
2022-11-03T14:57:23.067Z,17.63
2022-11-03T15:02:25.472Z,35.97
2022-11-03T15:07:28.014Z,9.03
2022-11-03T15:12:30.593Z,7.77
2022-11-03T15:17:33.365Z,7.77
2022-11-03T15:27:58.864Z,8.27
2022-11-03T15:33:01.675Z,8.97
2022-11-03T15:38:04.362Z,8.73
2022-11-03T15:43:07.042Z,9.23
2022-11-03T15:48:09.922Z,8.33
2022-11-03T15:53:12.547Z,11.87
2022-11-03T15:58:14.963Z,14.93
2022-11-03T16:03:17.849Z,18.60
2022-11-03T16:08:20.331Z,9.90
2022-11-03T16:13:23.288Z,10.60
2022-11-03T16:18:25.898Z,12.07
2022-11-03T16:23:28.396Z,15.37
2022-11-03T16:28:30.929Z,15.03
2022-11-03T16:33:33.386Z,13.67
2022-11-03T16:38:35.975Z,9.93
2022-11-03T16:43:38.463Z,9.87
2022-11-03T16:48:40.871Z,10.60
2022-11-03T16:53:43.462Z,10.67
2022-11-03T16:58:46.130Z,10.60
2022-11-03T17:03:48.577Z,10.17
2022-11-03T17:09:01.207Z,8.80
2022-11-03T17:14:14.210Z,11.80
2022-11-03T17:19:16.924Z,8.90
2022-11-03T17:24:20.311Z,8.93
2022-11-03T17:29:30.380Z,11.57
2022-11-03T17:34:33.199Z,16.23
2022-11-03T17:39:38.009Z,10.33
2022-11-03T17:44:40.603Z,15.90
2022-11-03T17:49:43.604Z,15.17
2022-11-03T17:54:46.213Z,12.80
2022-11-03T17:59:51.150Z,11.50
2022-11-03T18:05:32.003Z,11.40
2022-11-03T18:10:38.179Z,15.93
2022-11-03T18:15:42.148Z,12.03
2022-11-03T18:20:53.196Z,13.53
2022-11-03T18:25:56.638Z,16.47
2022-11-03T18:30:59.545Z,11.17
2022-11-03T18:36:04.205Z,14.27
2022-11-03T18:41:32.643Z,14.80
2022-11-03T18:46:35.319Z,12.90
2022-11-03T18:51:38.285Z,13.03
2022-11-03T18:56:41.001Z,12.37
2022-11-03T19:01:44.216Z,10.87
2022-11-03T19:06:49.342Z,11.07
2022-11-03T19:11:55.930Z,11.83
2022-11-03T19:22:23.953Z,12.47
2022-11-03T19:27:29.015Z,11.17
2022-11-03T19:32:35.844Z,12.33
2022-11-03T19:37:38.482Z,11.47
2022-11-03T19:42:41.207Z,12.30
2022-11-03T19:48:10.718Z,10.93
2022-11-03T19:53:08.397Z,11.27
2022-11-03T19:58:23.016Z,28.30
2022-11-03T20:03:26.167Z,14.23
2022-11-03T20:08:32.304Z,14.87
2022-11-03T20:13:40.778Z,12.80
2022-11-03T20:18:44.005Z,14.80
2022-11-03T20:23:48.486Z,15.17
2022-11-03T20:28:53.105Z,12.97
2022-11-03T20:33:55.689Z,13.03
2022-11-03T20:39:01.252Z,15.43
2022-11-03T20:44:03.978Z,18.33
2022-11-03T20:49:06.643Z,13.03
2022-11-03T20:54:15.860Z,13.60
2022-11-03T20:59:18.623Z,14.43
2022-11-03T21:04:21.181Z,10.77
2022-11-03T21:09:23.946Z,10.33
2022-11-03T21:14:29.946Z,10.33
2022-11-03T21:19:51.367Z,11.73
2022-11-03T21:25:03.324Z,11.30
2022-11-03T21:30:06.819Z,12.03
2022-11-03T21:35:19.777Z,10.07
2022-11-03T21:40:22.428Z,12.10
2022-11-03T21:45:25.146Z,11.83
2022-11-03T21:50:27.551Z,9.93
2022-11-03T21:55:29.994Z,10.23
2022-11-03T22:00:33.171Z,9.70
2022-11-03T22:05:35.614Z,9.33
2022-11-03T22:10:39.661Z,9.80
2022-11-03T22:16:00.791Z,9.70
2022-11-03T22:21:21.582Z,11.17
2022-11-03T22:26:42.653Z,9.17
2022-11-03T22:31:45.587Z,10.90
2022-11-03T22:36:48.037Z,11.23
2022-11-03T22:42:09.145Z,10.10
2022-11-03T22:47:13.340Z,9.30
2022-11-03T22:52:18.311Z,10.70
2022-11-03T22:57:20.927Z,11.13
2022-11-03T23:02:23.529Z,10.17
2022-11-03T23:07:31.589Z,11.10
2022-11-03T23:12:35.578Z,10.97
2022-11-03T23:17:56.367Z,10.50
2022-11-03T23:22:58.775Z,10.43
2022-11-03T23:28:01.287Z,11.07
2022-11-03T23:33:03.712Z,8.90
2022-11-03T23:38:06.341Z,9.40
2022-11-03T23:43:08.997Z,9.37
2022-11-03T23:48:29.989Z,8.87
2022-11-03T23:53:32.411Z,9.63
2022-11-03T23:58:34.821Z,10.50
